sensor_id;sensor_type;location;lat;lon;timestamp;pressure;altitude;pressure_sealevel;temperature;humidity
79372;BME280;68914;51.262;6.802;2023-06-14T00:00:21;101022.41;;;22.53;nan
79372;BME280;68914;51.262;6.802;2023-06-14T00:01:22;101024.63;;;22.26;nan
79372;BME280;68914;51.262;6.802;2023-06-14T00:02:23;101026.22;;;22.17;nan
79372;BME280;68914;51.262;6.802;2023-06-14T00:03:24;101039.91;;;22.20;nan
79372;BME280;68914;51.262;6.802;2023-06-14T00:04:24;101039.38;;;22.13;nan
79372;BME280;68914;51.262;6.802;2023-06-14T00:05:25;101029.16;;;22.30;nan
79372;BME280;68914;51.262;6.802;2023-06-14T00:06:28;101039.09;;;22.45;nan
79372;BME280;68914;51.262;6.802;2023-06-14T00:07:36;101030.50;;;22.38;nan
79372;BME280;68914;51.262;6.802;2023-06-14T00:08:38;101033.72;;;22.35;nan
79372;BME280;68914;51.262;6.802;2023-06-14T00:09:40;101034.50;;;22.51;nan
79372;BME280;68914;51.262;6.802;2023-06-14T00:10:41;101034.25;;;22.42;nan
79372;BME280;68914;51.262;6.802;2023-06-14T00:11:42;101029.72;;;22.22;nan
79372;BME280;68914;51.262;6.802;2023-06-14T00:12:43;101028.91;;;22.27;nan
79372;BME280;68914;51.262;6.802;2023-06-14T00:13:43;101033.50;;;22.21;nan
79372;BME280;68914;51.262;6.802;2023-06-14T00:14:44;101033.72;;;22.25;nan
79372;BME280;68914;51.262;6.802;2023-06-14T00:15:45;101031.84;;;22.30;nan
79372;BME280;68914;51.262;6.802;2023-06-14T00:16:46;101033.47;;;22.31;nan
79372;BME280;68914;51.262;6.802;2023-06-14T00:17:48;101031.31;;;22.39;nan
79372;BME280;68914;51.262;6.802;2023-06-14T00:18:48;101032.09;;;22.39;nan
79372;BME280;68914;51.262;6.802;2023-06-14T00:19:49;101030.50;;;22.38;nan
79372;BME280;68914;51.262;6.802;2023-06-14T00:20:51;101034.78;;;22.39;nan
79372;BME280;68914;51.262;6.802;2023-06-14T00:21:52;101035.88;;;22.38;nan
79372;BME280;68914;51.262;6.802;2023-06-14T00:22:54;101033.19;;;22.28;nan
79372;BME280;68914;51.262;6.802;2023-06-14T00:23:57;101027.53;;;22.09;nan
79372;BME280;68914;51.262;6.802;2023-06-14T00:24:57;101029.97;;;22.21;nan
79372;BME280;68914;51.262;6.802;2023-06-14T00:25:58;101039.38;;;22.28;nan
79372;BME280;68914;51.262;6.802;2023-06-14T00:26:59;101036.69;;;22.28;nan
79372;BME280;68914;51.262;6.802;2023-06-14T00:27:59;101032.94;;;22.29;nan
79372;BME280;68914;51.262;6.802;2023-06-14T00:29:00;101033.47;;;22.31;nan
79372;BME280;68914;51.262;6.802;2023-06-14T00:30:01;101040.47;;;22.22;nan
79372;BME280;68914;51.262;6.802;2023-06-14T00:31:02;101043.41;;;22.31;nan
79372;BME280;68914;51.262;6.802;2023-06-14T00:32:06;101038.84;;;22.16;nan
79372;BME280;68914;51.262;6.802;2023-06-14T00:33:06;101041.78;;;22.20;nan
79372;BME280;68914;51.262;6.802;2023-06-14T00:34:07;101039.91;;;22.20;nan
79372;BME280;68914;51.262;6.802;2023-06-14T00:35:10;101045.03;;;22.22;nan
79372;BME280;68914;51.262;6.802;2023-06-14T00:36:11;101046.88;;;22.11;nan
79372;BME280;68914;51.262;6.802;2023-06-14T00:37:12;101051.16;;;22.12;nan
79372;BME280;68914;51.262;6.802;2023-06-14T00:38:12;101053.06;;;22.06;nan
79372;BME280;68914;51.262;6.802;2023-06-14T00:39:14;101045.00;;;22.06;nan
79372;BME280;68914;51.262;6.802;2023-06-14T00:40:15;101053.31;;;22.05;nan
79372;BME280;68914;51.262;6.802;2023-06-14T00:41:16;101045.53;;;22.03;nan
79372;BME280;68914;51.262;6.802;2023-06-14T00:42:26;101050.63;;;22.05;nan
79372;BME280;68914;51.262;6.802;2023-06-14T00:43:27;101056.00;;;22.05;nan
79372;BME280;68914;51.262;6.802;2023-06-14T00:44:27;101054.38;;;22.04;nan
79372;BME280;68914;51.262;6.802;2023-06-14T00:45:28;101045.78;;;21.97;nan
79372;BME280;68914;51.262;6.802;2023-06-14T00:46:29;101051.44;;;22.00;nan
79372;BME280;68914;51.262;6.802;2023-06-14T00:47:29;101054.66;;;22.02;nan
79372;BME280;68914;51.262;6.802;2023-06-14T00:48:30;101053.03;;;21.86;nan
79372;BME280;68914;51.262;6.802;2023-06-14T00:49:32;101047.41;;;21.88;nan
79372;BME280;68914;51.262;6.802;2023-06-14T00:50:33;101048.19;;;21.68;nan
79372;BME280;68914;51.262;6.802;2023-06-14T00:51:34;101046.28;;;21.58;nan
79372;BME280;68914;51.262;6.802;2023-06-14T00:52:35;101049.25;;;21.72;nan
79372;BME280;68914;51.262;6.802;2023-06-14T00:53:36;101050.31;;;21.66;nan
79372;BME280;68914;51.262;6.802;2023-06-14T00:54:40;101055.41;;;21.67;nan
79372;BME280;68914;51.262;6.802;2023-06-14T00:55:42;101047.34;;;21.57;nan
79372;BME280;68914;51.262;6.802;2023-06-14T00:56:43;101051.91;;;21.46;nan
79372;BME280;68914;51.262;6.802;2023-06-14T00:57:46;101051.91;;;21.46;nan
79372;BME280;68914;51.262;6.802;2023-06-14T00:58:47;101053.22;;;21.54;nan
79372;BME280;68914;51.262;6.802;2023-06-14T00:59:49;101049.22;;;21.56;nan
79372;BME280;68914;51.262;6.802;2023-06-14T01:00:51;101042.22;;;21.45;nan
79372;BME280;68914;51.262;6.802;2023-06-14T01:01:51;101057.03;;;21.58;nan
79372;BME280;68914;51.262;6.802;2023-06-14T01:02:52;101055.66;;;21.60;nan
79372;BME280;68914;51.262;6.802;2023-06-14T01:04:18;101049.47;;;21.50;nan
79372;BME280;68914;51.262;6.802;2023-06-14T01:05:44;101061.25;;;21.44;nan
79372;BME280;68914;51.262;6.802;2023-06-14T01:07:19;101053.50;;;21.47;nan
79372;BME280;68914;51.262;6.802;2023-06-14T01:08:48;101059.94;;;21.46;nan
79372;BME280;68914;51.262;6.802;2023-06-14T01:11:16;101057.75;;;21.38;nan
79372;BME280;68914;51.262;6.802;2023-06-14T01:12:36;101066.06;;;21.42;nan
79372;BME280;68914;51.262;6.802;2023-06-14T01:13:44;101063.59;;;21.30;nan
79372;BME280;68914;51.262;6.802;2023-06-14T01:14:47;101066.28;;;21.30;nan
79372;BME280;68914;51.262;6.802;2023-06-14T01:15:49;101065.97;;;21.21;nan
79372;BME280;68914;51.262;6.802;2023-06-14T01:16:51;101064.53;;;20.98;nan
79372;BME280;68914;51.262;6.802;2023-06-14T01:17:55;101067.66;;;20.80;nan
79372;BME280;68914;51.262;6.802;2023-06-14T01:18:58;101062.78;;;20.72;nan
79372;BME280;68914;51.262;6.802;2023-06-14T01:20:01;101071.19;;;20.48;nan
79372;BME280;68914;51.262;6.802;2023-06-14T01:21:03;101066.28;;;20.40;nan
79372;BME280;68914;51.262;6.802;2023-06-14T01:22:07;101067.94;;;20.46;nan
79372;BME280;68914;51.262;6.802;2023-06-14T01:23:08;101067.56;;;20.32;nan
79372;BME280;68914;51.262;6.802;2023-06-14T01:24:09;101065.22;;;20.41;nan
79372;BME280;68914;51.262;6.802;2023-06-14T01:25:11;101065.72;;;20.38;nan
79372;BME280;68914;51.262;6.802;2023-06-14T01:26:12;101060.13;;;20.39;nan
79372;BME280;68914;51.262;6.802;2023-06-14T01:27:14;101064.50;;;20.19;nan
79372;BME280;68914;51.262;6.802;2023-06-14T01:28:16;101061.00;;;20.13;nan
79372;BME280;68914;51.262;6.802;2023-06-14T01:29:17;101056.06;;;20.32;nan
79372;BME280;68914;51.262;6.802;2023-06-14T01:30:20;101063.09;;;20.11;nan
79372;BME280;68914;51.262;6.802;2023-06-14T01:31:21;101061.03;;;20.18;nan
79372;BME280;68914;51.262;6.802;2023-06-14T01:32:24;101058.16;;;20.30;nan
79372;BME280;68914;51.262;6.802;2023-06-14T01:33:27;101075.31;;;20.29;nan
79372;BME280;68914;51.262;6.802;2023-06-14T01:34:29;101067.72;;;20.16;nan
79372;BME280;68914;51.262;6.802;2023-06-14T01:35:30;101062.91;;;20.18;nan
79372;BME280;68914;51.262;6.802;2023-06-14T01:36:31;101064.63;;;20.02;nan
79372;BME280;68914;51.262;6.802;2023-06-14T01:37:32;101061.16;;;20.01;nan
79372;BME280;68914;51.262;6.802;2023-06-14T01:38:36;101058.16;;;20.30;nan
79372;BME280;68914;51.262;6.802;2023-06-14T01:39:37;101060.72;;;20.14;nan
79372;BME280;68914;51.262;6.802;2023-06-14T01:40:39;101067.88;;;20.36;nan
79372;BME280;68914;51.262;6.802;2023-06-14T01:41:40;101066.53;;;20.38;nan
79372;BME280;68914;51.262;6.802;2023-06-14T01:42:41;101065.91;;;20.26;nan
79372;BME280;68914;51.262;6.802;2023-06-14T01:43:45;101063.28;;;20.31;nan
79372;BME280;68914;51.262;6.802;2023-06-14T01:44:47;101065.44;;;20.34;nan
79372;BME280;68914;51.262;6.802;2023-06-14T01:45:49;101066.50;;;20.33;nan
79372;BME280;68914;51.262;6.802;2023-06-14T01:46:53;101061.41;;;20.32;nan
79372;BME280;68914;51.262;6.802;2023-06-14T01:47:57;101060.66;;;20.42;nan
79372;BME280;68914;51.262;6.802;2023-06-14T01:48:58;101065.38;;;20.56;nan
79372;BME280;68914;51.262;6.802;2023-06-14T01:50:02;101069.09;;;20.23;nan
79372;BME280;68914;51.262;6.802;2023-06-14T01:51:04;101072.66;;;20.34;nan
79372;BME280;68914;51.262;6.802;2023-06-14T01:52:05;101070.78;;;20.34;nan
79372;BME280;68914;51.262;6.802;2023-06-14T01:53:09;101065.53;;;20.12;nan
79372;BME280;68914;51.262;6.802;2023-06-14T01:54:11;101064.03;;;20.27;nan
79372;BME280;68914;51.262;6.802;2023-06-14T01:55:12;101061.94;;;20.34;nan
79372;BME280;68914;51.262;6.802;2023-06-14T01:56:13;101065.78;;;20.43;nan
79372;BME280;68914;51.262;6.802;2023-06-14T01:57:14;101071.31;;;20.31;nan
79372;BME280;68914;51.262;6.802;2023-06-14T01:58:15;101062.53;;;20.36;nan
79372;BME280;68914;51.262;6.802;2023-06-14T01:59:17;101058.16;;;20.30;nan
79372;BME280;68914;51.262;6.802;2023-06-14T02:00:20;101063.38;;;20.47;nan
79372;BME280;68914;51.262;6.802;2023-06-14T02:01:22;101062.81;;;20.39;nan
79372;BME280;68914;51.262;6.802;2023-06-14T02:02:22;101070.38;;;20.48;nan
79372;BME280;68914;51.262;6.802;2023-06-14T02:03:23;101064.22;;;20.47;nan
79372;BME280;68914;51.262;6.802;2023-06-14T02:04:26;101060.53;;;20.58;nan
79372;BME280;68914;51.262;6.802;2023-06-14T02:05:27;101065.88;;;20.53;nan
79372;BME280;68914;51.262;6.802;2023-06-14T02:06:28;101063.13;;;20.48;nan
79372;BME280;68914;51.262;6.802;2023-06-14T02:07:29;101064.81;;;20.54;nan
79372;BME280;68914;51.262;6.802;2023-06-14T02:08:30;101066.94;;;20.52;nan
79372;BME280;68914;51.262;6.802;2023-06-14T02:09:31;101061.63;;;20.62;nan
79372;BME280;68914;51.262;6.802;2023-06-14T02:10:31;101065.19;;;20.68;nan
79372;BME280;68914;51.262;6.802;2023-06-14T02:11:32;101055.47;;;20.62;nan
79372;BME280;68914;51.262;6.802;2023-06-14T02:12:32;101064.09;;;20.69;nan
79372;BME280;68914;51.262;6.802;2023-06-14T02:13:33;101062.75;;;20.67;nan
79372;BME280;68914;51.262;6.802;2023-06-14T02:14:35;101059.03;;;20.73;nan
79372;BME280;68914;51.262;6.802;2023-06-14T02:15:35;101068.72;;;20.79;nan
79372;BME280;68914;51.262;6.802;2023-06-14T02:16:36;101066.72;;;20.59;nan
79372;BME280;68914;51.262;6.802;2023-06-14T02:17:37;101067.88;;;20.36;nan
79372;BME280;68914;51.262;6.802;2023-06-14T02:18:40;101057.94;;;20.31;nan
79372;BME280;68914;51.262;6.802;2023-06-14T02:19:41;101063.97;;;20.49;nan
79372;BME280;68914;51.262;6.802;2023-06-14T02:20:42;101066.38;;;20.50;nan
79372;BME280;68914;51.262;6.802;2023-06-14T02:21:44;101070.00;;;20.34;nan
79372;BME280;68914;51.262;6.802;2023-06-14T02:22:46;101058.03;;;20.47;nan
79372;BME280;68914;51.262;6.802;2023-06-14T02:23:47;101061.94;;;20.34;nan
79372;BME280;68914;51.262;6.802;2023-06-14T02:24:48;101061.28;;;20.49;nan
79372;BME280;68914;51.262;6.802;2023-06-14T02:25:49;101058.56;;;20.44;nan
79372;BME280;68914;51.262;6.802;2023-06-14T02:26:49;101068.88;;;20.30;nan
79372;BME280;68914;51.262;6.802;2023-06-14T02:27:50;101063.13;;;20.48;nan
79372;BME280;68914;51.262;6.802;2023-06-14T02:28:51;101067.88;;;20.36;nan
79372;BME280;68914;51.262;6.802;2023-06-14T02:29:52;101063.56;;;20.35;nan
79372;BME280;68914;51.262;6.802;2023-06-14T02:30:52;101069.47;;;20.37;nan
79372;BME280;68914;51.262;6.802;2023-06-14T02:31:56;101065.91;;;20.26;nan
79372;BME280;68914;51.262;6.802;2023-06-14T02:32:57;101067.78;;;19.94;nan
79372;BME280;68914;51.262;6.802;2023-06-14T02:33:59;101072.41;;;20.03;nan
79372;BME280;68914;51.262;6.802;2023-06-14T02:35:00;101073.94;;;19.94;nan
79372;BME280;68914;51.262;6.802;2023-06-14T02:36:01;101072.78;;;20.12;nan
79372;BME280;68914;51.262;6.802;2023-06-14T02:37:03;101071.81;;;19.96;nan
79372;BME280;68914;51.262;6.802;2023-06-14T02:38:03;101071.56;;;19.98;nan
79372;BME280;68914;51.262;6.802;2023-06-14T02:39:04;101079.75;;;20.18;nan
79372;BME280;68914;51.262;6.802;2023-06-14T02:40:05;101079.00;;;20.23;nan
79372;BME280;68914;51.262;6.802;2023-06-14T02:41:06;101077.09;;;20.18;nan
79372;BME280;68914;51.262;6.802;2023-06-14T02:42:07;101077.09;;;19.91;nan
79372;BME280;68914;51.262;6.802;2023-06-14T02:43:08;101073.28;;;20.09;nan
79372;BME280;68914;51.262;6.802;2023-06-14T02:44:09;101076.69;;;20.31;nan
79372;BME280;68914;51.262;6.802;2023-06-14T02:45:12;101075.00;;;20.25;nan
79372;BME280;68914;51.262;6.802;2023-06-14T02:46:12;101084.72;;;20.31;nan
79372;BME280;68914;51.262;6.802;2023-06-14T02:47:13;101075.19;;;20.13;nan
79372;BME280;68914;51.262;6.802;2023-06-14T02:48:14;101076.72;;;20.04;nan
79372;BME280;68914;51.262;6.802;2023-06-14T02:49:15;101076.66;;;19.99;nan
79372;BME280;68914;51.262;6.802;2023-06-14T02:50:15;101080.84;;;19.90;nan
79372;BME280;68914;51.262;6.802;2023-06-14T02:51:17;101080.28;;;20.15;nan
79372;BME280;68914;51.262;6.802;2023-06-14T02:52:18;101079.31;;;19.99;nan
79372;BME280;68914;51.262;6.802;2023-06-14T02:53:18;101083.72;;;20.10;nan
79372;BME280;68914;51.262;6.802;2023-06-14T02:54:19;101075.22;;;20.19;nan
79372;BME280;68914;51.262;6.802;2023-06-14T02:55:20;101087.00;;;20.18;nan
79372;BME280;68914;51.262;6.802;2023-06-14T02:56:20;101085.41;;;19.89;nan
79372;BME280;68914;51.262;6.802;2023-06-14T02:57:23;101085.88;;;20.13;nan
79372;BME280;68914;51.262;6.802;2023-06-14T02:58:24;101090.94;;;19.83;nan
79372;BME280;68914;51.262;6.802;2023-06-14T02:59:25;101092.81;;;19.82;nan
79372;BME280;68914;51.262;6.802;2023-06-14T03:00:28;101088.78;;;19.58;nan
79372;BME280;68914;51.262;6.802;2023-06-14T03:01:31;101090.66;;;19.57;nan
79372;BME280;68914;51.262;6.802;2023-06-14T03:02:37;101095.06;;;19.47;nan
79372;BME280;68914;51.262;6.802;2023-06-14T03:03:37;101099.88;;;19.45;nan
79372;BME280;68914;51.262;6.802;2023-06-14T03:04:38;101101.00;;;19.49;nan
79372;BME280;68914;51.262;6.802;2023-06-14T03:05:44;101097.13;;;19.39;nan
79372;BME280;68914;51.262;6.802;2023-06-14T03:06:52;101104.28;;;19.78;nan
79372;BME280;68914;51.262;6.802;2023-06-14T03:07:55;101103.13;;;19.69;nan
79372;BME280;68914;51.262;6.802;2023-06-14T03:08:57;101100.78;;;19.55;nan
79372;BME280;68914;51.262;6.802;2023-06-14T03:10:00;101106.13;;;19.55;nan
79372;BME280;68914;51.262;6.802;2023-06-14T03:11:01;101109.88;;;19.54;nan
79372;BME280;68914;51.262;6.802;2023-06-14T03:12:04;101109.59;;;19.73;nan
79372;BME280;68914;51.262;6.802;2023-06-14T03:13:07;101105.00;;;19.51;nan
79372;BME280;68914;51.262;6.802;2023-06-14T03:14:07;101109.56;;;19.51;nan
79372;BME280;68914;51.262;6.802;2023-06-14T03:15:10;101113.88;;;19.74;nan
79372;BME280;68914;51.262;6.802;2023-06-14T03:16:15;101108.66;;;19.62;nan
79372;BME280;68914;51.262;6.802;2023-06-14T03:17:18;101108.56;;;19.57;nan
79372;BME280;68914;51.262;6.802;2023-06-14T03:18:20;101110.97;;;19.58;nan
79372;BME280;68914;51.262;6.802;2023-06-14T03:19:23;101105.16;;;19.61;nan
79372;BME280;68914;51.262;6.802;2023-06-14T03:20:24;101111.13;;;19.47;nan
79372;BME280;68914;51.262;6.802;2023-06-14T03:21:30;101120.59;;;19.32;nan
79372;BME280;68914;51.262;6.802;2023-06-14T03:22:33;101119.94;;;19.47;nan
79372;BME280;68914;51.262;6.802;2023-06-14T03:23:35;101115.84;;;19.39;nan
79372;BME280;68914;51.262;6.802;2023-06-14T03:24:37;101116.94;;;19.44;nan
79372;BME280;68914;51.262;6.802;2023-06-14T03:25:43;101118.31;;;19.24;nan
79372;BME280;68914;51.262;6.802;2023-06-14T03:26:45;101120.88;;;19.36;nan
79372;BME280;68914;51.262;6.802;2023-06-14T03:27:47;101129.91;;;19.30;nan
79372;BME280;68914;51.262;6.802;2023-06-14T03:28:48;101125.94;;;19.15;nan
79372;BME280;68914;51.262;6.802;2023-06-14T03:29:50;101123.91;;;19.23;nan
79372;BME280;68914;51.262;6.802;2023-06-14T03:30:51;101127.78;;;19.32;nan
79372;BME280;68914;51.262;6.802;2023-06-14T03:31:59;101124.16;;;19.21;nan
79372;BME280;68914;51.262;6.802;2023-06-14T03:33:06;101122.84;;;19.24;nan
79372;BME280;68914;51.262;6.802;2023-06-14T03:34:11;101120.56;;;19.54;nan
79372;BME280;68914;51.262;6.802;2023-06-14T03:35:12;101127.59;;;19.38;nan
79372;BME280;68914;51.262;6.802;2023-06-14T03:36:17;101126.63;;;19.67;nan
79372;BME280;68914;51.262;6.802;2023-06-14T03:37:19;101125.31;;;19.69;nan
79372;BME280;68914;51.262;6.802;2023-06-14T03:38:21;101129.16;;;19.78;nan
79372;BME280;68914;51.262;6.802;2023-06-14T03:39:22;101125.22;;;19.86;nan
79372;BME280;68914;51.262;6.802;2023-06-14T03:40:23;101131.16;;;19.88;nan
79372;BME280;68914;51.262;6.802;2023-06-14T03:41:31;101129.03;;;19.90;nan
79372;BME280;68914;51.262;6.802;2023-06-14T03:42:32;101134.81;;;19.82;nan
79372;BME280;68914;51.262;6.802;2023-06-14T03:43:33;101137.81;;;19.85;nan
79372;BME280;68914;51.262;6.802;2023-06-14T03:44:35;101136.13;;;19.79;nan
79372;BME280;68914;51.262;6.802;2023-06-14T03:45:36;101137.81;;;19.85;nan
79372;BME280;68914;51.262;6.802;2023-06-14T03:46:37;101141.78;;;19.83;nan
79372;BME280;68914;51.262;6.802;2023-06-14T03:47:38;101139.75;;;19.68;nan
79372;BME280;68914;51.262;6.802;2023-06-14T03:48:39;101137.81;;;19.85;nan
79372;BME280;68914;51.262;6.802;2023-06-14T03:49:40;101136.69;;;19.81;nan
79372;BME280;68914;51.262;6.802;2023-06-14T03:50:41;101140.66;;;19.57;nan
79372;BME280;68914;51.262;6.802;2023-06-14T03:51:43;101137.38;;;19.72;nan
79372;BME280;68914;51.262;6.802;2023-06-14T03:52:44;101137.72;;;19.58;nan
79372;BME280;68914;51.262;6.802;2023-06-14T03:53:46;101146.16;;;19.67;nan
79372;BME280;68914;51.262;6.802;2023-06-14T03:54:47;101144.06;;;19.69;nan
79372;BME280;68914;51.262;6.802;2023-06-14T03:55:48;101150.53;;;19.73;nan
79372;BME280;68914;51.262;6.802;2023-06-14T03:56:49;101149.19;;;19.76;nan
79372;BME280;68914;51.262;6.802;2023-06-14T03:57:51;101148.88;;;19.94;nan
79372;BME280;68914;51.262;6.802;2023-06-14T03:58:52;101148.56;;;19.90;nan
79372;BME280;68914;51.262;6.802;2023-06-14T03:59:56;101148.63;;;19.96;nan
79372;BME280;68914;51.262;6.802;2023-06-14T04:00:58;101144.09;;;19.74;nan
79372;BME280;68914;51.262;6.802;2023-06-14T04:01:59;101150.47;;;19.68;nan
79372;BME280;68914;51.262;6.802;2023-06-14T04:03:00;101148.19;;;19.82;nan
79372;BME280;68914;51.262;6.802;2023-06-14T04:04:01;101153.41;;;19.94;nan
79372;BME280;68914;51.262;6.802;2023-06-14T04:05:03;101156.41;;;19.97;nan
79372;BME280;68914;51.262;6.802;2023-06-14T04:06:04;101152.13;;;19.96;nan
79372;BME280;68914;51.262;6.802;2023-06-14T04:07:05;101152.16;;;20.01;nan
79372;BME280;68914;51.262;6.802;2023-06-14T04:08:09;101154.34;;;20.04;nan
79372;BME280;68914;51.262;6.802;2023-06-14T04:09:11;101155.75;;;20.12;nan
79372;BME280;68914;51.262;6.802;2023-06-14T04:10:12;101155.50;;;20.13;nan
79372;BME280;68914;51.262;6.802;2023-06-14T04:11:13;101160.84;;;20.13;nan
79372;BME280;68914;51.262;6.802;2023-06-14T04:12:15;101154.72;;;20.18;nan
79372;BME280;68914;51.262;6.802;2023-06-14T04:13:16;101156.31;;;20.14;nan
79372;BME280;68914;51.262;6.802;2023-06-14T04:14:19;101156.56;;;20.12;nan
79372;BME280;68914;51.262;6.802;2023-06-14T04:15:19;101155.69;;;20.07;nan
79372;BME280;68914;51.262;6.802;2023-06-14T04:16:20;101151.97;;;20.08;nan
79372;BME280;68914;51.262;6.802;2023-06-14T04:17:21;101152.47;;;20.05;nan
79372;BME280;68914;51.262;6.802;2023-06-14T04:18:21;101165.41;;;20.13;nan
79372;BME280;68914;51.262;6.802;2023-06-14T04:19:22;101159.31;;;20.23;nan
79372;BME280;68914;51.262;6.802;2023-06-14T04:20:23;101171.41;;;20.25;nan
79372;BME280;68914;51.262;6.802;2023-06-14T04:21:26;101169.84;;;20.29;nan
79372;BME280;68914;51.262;6.802;2023-06-14T04:22:30;101172.78;;;20.28;nan
79372;BME280;68914;51.262;6.802;2023-06-14T04:23:33;101175.00;;;20.36;nan
79372;BME280;68914;51.262;6.802;2023-06-14T04:24:35;101176.00;;;20.30;nan
79372;BME280;68914;51.262;6.802;2023-06-14T04:25:36;101177.47;;;20.16;nan
79372;BME280;68914;51.262;6.802;2023-06-14T04:26:37;101179.19;;;20.27;nan
79372;BME280;68914;51.262;6.802;2023-06-14T04:27:38;101178.72;;;20.35;nan
79372;BME280;68914;51.262;6.802;2023-06-14T04:28:39;101182.25;;;20.13;nan
79372;BME280;68914;51.262;6.802;2023-06-14T04:29:42;101181.94;;;20.32;nan
79372;BME280;68914;51.262;6.802;2023-06-14T04:30:46;101182.31;;;20.46;nan
79372;BME280;68914;51.262;6.802;2023-06-14T04:31:51;101174.59;;;20.22;nan
79372;BME280;68914;51.262;6.802;2023-06-14T04:32:52;101178.38;;;20.26;nan
79372;BME280;68914;51.262;6.802;2023-06-14T04:33:56;101180.22;;;20.21;nan
79372;BME280;68914;51.262;6.802;2023-06-14T04:34:57;101180.44;;;20.19;nan
79372;BME280;68914;51.262;6.802;2023-06-14T04:36:00;101185.22;;;20.12;nan
79372;BME280;68914;51.262;6.802;2023-06-14T04:37:01;101187.88;;;20.12;nan
79372;BME280;68914;51.262;6.802;2023-06-14T04:38:07;101183.88;;;20.14;nan
79372;BME280;68914;51.262;6.802;2023-06-14T04:39:12;101194.34;;;20.16;nan
79372;BME280;68914;51.262;6.802;2023-06-14T04:40:13;101183.53;;;20.33;nan
79372;BME280;68914;51.262;6.802;2023-06-14T04:41:15;101194.78;;;20.35;nan
79372;BME280;68914;51.262;6.802;2023-06-14T04:42:17;101191.16;;;20.46;nan
79372;BME280;68914;51.262;6.802;2023-06-14T04:43:21;101189.97;;;20.59;nan
79372;BME280;68914;51.262;6.802;2023-06-14T04:44:29;101189.53;;;20.45;nan
79372;BME280;68914;51.262;6.802;2023-06-14T04:45:33;101180.81;;;20.55;nan
79372;BME280;68914;51.262;6.802;2023-06-14T04:46:34;101185.41;;;20.59;nan
79372;BME280;68914;51.262;6.802;2023-06-14T04:47:49;101181.97;;;20.64;nan
79372;BME280;68914;51.262;6.802;2023-06-14T04:48:51;101182.69;;;20.54;nan
79372;BME280;68914;51.262;6.802;2023-06-14T04:49:52;101186.94;;;20.50;nan
79372;BME280;68914;51.262;6.802;2023-06-14T04:50:55;101188.59;;;20.56;nan
79372;BME280;68914;51.262;6.802;2023-06-14T04:51:56;101191.16;;;20.73;nan
79372;BME280;68914;51.262;6.802;2023-06-14T04:53:01;101190.63;;;20.71;nan
79372;BME280;68914;51.262;6.802;2023-06-14T04:54:03;101186.84;;;20.72;nan
79372;BME280;68914;51.262;6.802;2023-06-14T04:55:05;101189.97;;;20.91;nan
79372;BME280;68914;51.262;6.802;2023-06-14T04:56:07;101193.75;;;20.95;nan
79372;BME280;68914;51.262;6.802;2023-06-14T04:57:09;101193.19;;;20.61;nan
79372;BME280;68914;51.262;6.802;2023-06-14T04:58:16;101192.78;;;20.47;nan
79372;BME280;68914;51.262;6.802;2023-06-14T04:59:16;101198.50;;;20.88;nan
79372;BME280;68914;51.262;6.802;2023-06-14T05:00:18;101197.81;;;21.03;nan
79372;BME280;68914;51.262;6.802;2023-06-14T05:01:19;101198.06;;;21.01;nan
79372;BME280;68914;51.262;6.802;2023-06-14T05:02:22;101197.22;;;20.96;nan
79372;BME280;68914;51.262;6.802;2023-06-14T05:03:24;101202.63;;;21.06;nan
79372;BME280;68914;51.262;6.802;2023-06-14T05:04:25;101205.09;;;21.07;nan
79372;BME280;68914;51.262;6.802;2023-06-14T05:05:27;101204.56;;;21.10;nan
79372;BME280;68914;51.262;6.802;2023-06-14T05:06:29;101203.00;;;21.15;nan
79372;BME280;68914;51.262;6.802;2023-06-14T05:07:30;101203.78;;;20.78;nan
79372;BME280;68914;51.262;6.802;2023-06-14T05:08:31;101215.41;;;20.94;nan
79372;BME280;68914;51.262;6.802;2023-06-14T05:09:32;101215.31;;;21.10;nan
79372;BME280;68914;51.262;6.802;2023-06-14T05:10:34;101204.34;;;21.22;nan
79372;BME280;68914;51.262;6.802;2023-06-14T05:11:36;101213.31;;;21.33;nan
79372;BME280;68914;51.262;6.802;2023-06-14T05:12:37;101219.25;;;21.40;nan
79372;BME280;68914;51.262;6.802;2023-06-14T05:13:39;101212.44;;;21.27;nan
79372;BME280;68914;51.262;6.802;2023-06-14T05:14:41;101209.34;;;21.41;nan
79372;BME280;68914;51.262;6.802;2023-06-14T05:15:42;101217.16;;;21.47;nan
79372;BME280;68914;51.262;6.802;2023-06-14T05:16:43;101209.81;;;21.32;nan
79372;BME280;68914;51.262;6.802;2023-06-14T05:17:45;101214.72;;;21.03;nan
79372;BME280;68914;51.262;6.802;2023-06-14T05:18:53;101214.66;;;20.98;nan
79372;BME280;68914;51.262;6.802;2023-06-14T05:19:54;101217.00;;;21.27;nan
79372;BME280;68914;51.262;6.802;2023-06-14T05:20:56;101215.53;;;21.46;nan
79372;BME280;68914;51.262;6.802;2023-06-14T05:21:57;101217.16;;;21.47;nan
79372;BME280;68914;51.262;6.802;2023-06-14T05:22:57;101209.69;;;21.59;nan
79372;BME280;68914;51.262;6.802;2023-06-14T05:23:58;101207.75;;;21.45;nan
79372;BME280;68914;51.262;6.802;2023-06-14T05:24:59;101213.75;;;21.25;nan
79372;BME280;68914;51.262;6.802;2023-06-14T05:26:00;101210.69;;;21.43;nan
79372;BME280;68914;51.262;6.802;2023-06-14T05:27:03;101218.13;;;21.83;nan
79372;BME280;68914;51.262;6.802;2023-06-14T05:28:03;101212.81;;;21.99;nan
79372;BME280;68914;51.262;6.802;2023-06-14T05:29:04;101217.03;;;21.84;nan
79372;BME280;68914;51.262;6.802;2023-06-14T05:30:05;101213.03;;;21.92;nan
79372;BME280;68914;51.262;6.802;2023-06-14T05:31:06;101205.56;;;22.04;nan
79372;BME280;68914;51.262;6.802;2023-06-14T05:32:07;101212.88;;;22.14;nan
79372;BME280;68914;51.262;6.802;2023-06-14T05:33:07;101213.44;;;22.26;nan
79372;BME280;68914;51.262;6.802;2023-06-14T05:34:08;101213.19;;;22.38;nan
79372;BME280;68914;51.262;6.802;2023-06-14T05:35:09;101213.75;;;22.50;nan